createdAt,value
2016-10-26T16:25:58.536Z,59.13
2016-10-26T16:27:08.867Z,59.33
2016-10-26T16:28:48.332Z,58.94
2016-10-26T16:29:58.662Z,59.23
2016-10-26T16:31:08.993Z,59.64
2016-10-26T16:32:19.337Z,59.84
2016-10-26T16:33:29.665Z,59.94
2016-10-26T16:34:39.995Z,60.23
2016-10-26T16:35:50.323Z,59.94
2016-10-26T16:38:25.679Z,60.23
2016-10-26T16:39:36.480Z,60.23
2016-10-26T16:41:01.388Z,60.23
2016-10-26T16:42:11.824Z,60.23
2016-10-26T16:43:22.151Z,60.23
2016-10-26T16:44:32.481Z,60.03
2016-10-26T16:45:42.810Z,60.23
2016-10-26T16:46:53.186Z,60.13
2016-10-26T16:48:03.613Z,59.64
2016-10-26T16:49:13.940Z,59.55
2016-10-26T16:50:24.274Z,59.48
2016-10-26T16:51:34.604Z,59.19
2016-10-26T16:52:44.971Z,57.73
2016-10-26T16:53:55.305Z,57.82
2016-10-26T16:55:06.504Z,57.43
2016-10-26T16:56:16.833Z,57.63
2016-10-26T16:57:27.248Z,58.02
2016-10-26T16:58:37.678Z,57.73
2016-10-26T16:59:48.106Z,57.95
2016-10-26T17:00:59.011Z,57.75
2016-10-26T17:02:09.436Z,58.02
2016-10-26T17:03:19.870Z,58.34
2016-10-26T17:04:30.363Z,58.02
2016-10-26T17:05:41.279Z,58.53
2016-10-26T17:06:51.699Z,58.31
2016-10-26T17:08:02.127Z,57.95
2016-10-26T17:09:12.555Z,57.82
2016-10-26T17:10:22.977Z,58.04
2016-10-26T17:11:33.504Z,58.04
2016-10-26T17:12:44.422Z,56.97
2016-10-26T17:13:54.895Z,57.17
2016-10-26T17:15:05.437Z,57.36
2016-10-26T17:16:15.983Z,56.58
2016-10-26T17:17:26.621Z,57.46
2016-10-26T17:18:37.162Z,57.36
2016-10-26T17:19:47.708Z,58.34
2016-10-26T17:20:58.249Z,58.12
2016-10-26T17:22:08.789Z,57.95
2016-10-26T17:23:19.331Z,57.46
2016-10-26T17:24:29.873Z,58.24
2016-10-26T17:25:55.441Z,57.85
2016-10-26T17:27:05.985Z,57.46
2016-10-26T17:28:16.559Z,56.48
2016-10-26T17:29:27.153Z,56.58
2016-10-26T17:30:37.701Z,56.29
2016-10-26T17:31:48.247Z,55.8
2016-10-26T17:34:38.422Z,56.2
2016-10-26T17:36:03.497Z,54.05
2016-10-26T17:37:14.037Z,54.44
2016-10-26T17:38:24.586Z,53.56
2016-10-26T17:39:35.233Z,53.07
2016-10-26T17:40:45.775Z,52.87
2016-10-26T17:41:56.316Z,52.48
2016-10-26T17:43:06.861Z,52.97
2016-10-26T17:44:17.481Z,53.85
2016-10-26T17:45:28.022Z,53.95
2016-10-26T17:48:03.683Z,53.75
2016-10-26T17:49:14.296Z,53.27
2016-10-26T17:50:24.943Z,53.66
2016-10-26T17:51:35.488Z,53.85
2016-10-26T17:52:46.028Z,54.34
2016-10-26T17:53:56.571Z,53.39
2016-10-26T17:55:07.227Z,54.05
2016-10-26T17:56:18.288Z,55.48
2016-10-26T17:57:43.357Z,53.99
2016-10-26T17:58:53.903Z,54.02
2016-10-26T18:00:04.452Z,53.92
2016-10-26T18:01:15.093Z,53.83
2016-10-26T18:02:25.635Z,53.83
2016-10-26T18:03:36.178Z,53.14
2016-10-26T18:04:47.218Z,53.44
2016-10-26T18:05:57.865Z,54.02
2016-10-26T18:07:08.408Z,53.73
2016-10-26T18:08:18.948Z,54.6
2016-10-26T18:09:29.490Z,54.99
2016-10-26T18:10:40.032Z,54.28
2016-10-26T18:11:50.671Z,55.19
2016-10-26T18:13:01.255Z,55.09
2016-10-26T18:14:12.300Z,55.55
2016-10-26T18:15:22.843Z,55.85
2016-10-26T18:16:33.384Z,55.94
2016-10-26T18:17:43.928Z,55.75
2016-10-26T18:18:54.467Z,55.91
2016-10-26T18:20:04.975Z,56.33
2016-10-26T18:21:15.402Z,56.5
2016-10-26T18:22:25.829Z,56.99
2016-10-26T18:23:50.803Z,57.67
2016-10-26T18:25:01.225Z,56.6
2016-10-26T18:26:11.851Z,57.5
2016-10-26T18:27:22.236Z,57.11
2016-10-26T18:28:32.668Z,57.5
2016-10-26T18:29:43.000Z,56.82
2016-10-26T18:30:53.335Z,55.94
2016-10-26T18:32:03.667Z,55.68
2016-10-26T18:33:14.001Z,55.77
2016-10-26T18:34:24.334Z,55.68
2016-10-26T18:35:34.700Z,55.97
2016-10-26T18:36:45.028Z,56.36
2016-10-26T18:37:55.361Z,56.56
2016-10-26T18:39:20.259Z,56.95
2016-10-26T18:40:30.590Z,56.72
2016-10-26T18:43:20.387Z,56.75
2016-10-26T18:44:30.721Z,57.43
2016-10-26T18:45:41.049Z,57.6
2016-10-26T18:46:51.399Z,57.11
2016-10-26T18:48:01.738Z,57.4
2016-10-26T18:49:12.072Z,57.11
2016-10-26T18:50:22.502Z,57.99
2016-10-26T18:51:47.401Z,57.6
2016-10-26T18:54:22.627Z,57.6
2016-10-26T18:55:32.964Z,57.4
2016-10-26T18:56:43.300Z,57.11
2016-10-26T18:57:53.628Z,57.89
2016-10-26T18:59:03.958Z,57.89
2016-10-26T19:00:14.290Z,57.89
2016-10-26T19:01:39.293Z,58.18
2016-10-26T19:02:50.097Z,58.87
2016-10-26T19:04:00.433Z,57.6
2016-10-26T19:05:25.330Z,57.31
2016-10-26T19:06:35.659Z,57.11
2016-10-26T19:07:45.991Z,57.4
2016-10-26T19:08:56.327Z,57.4
2016-10-26T19:10:06.660Z,57.31
2016-10-26T19:11:17.019Z,56.72
2016-10-26T19:12:27.447Z,57.53
2016-10-26T19:13:37.776Z,57.92
2016-10-26T19:14:48.135Z,57.79
2016-10-26T19:15:58.466Z,56.56
2016-10-26T19:17:08.795Z,57.43
2016-10-26T19:18:19.147Z,57.4
2016-10-26T19:19:29.477Z,56.95
2016-10-26T19:20:39.808Z,57.14
2016-10-26T19:21:50.136Z,57.34
2016-10-26T19:23:00.474Z,57.24
2016-10-26T19:24:10.920Z,56.65
2016-10-26T19:25:21.249Z,56.56
2016-10-26T19:26:31.620Z,56.56
2016-10-26T19:27:56.554Z,57.14
2016-10-26T19:29:06.884Z,57.34
2016-10-26T19:30:17.217Z,57.6
2016-10-26T19:31:27.578Z,56.72
2016-10-26T19:32:52.475Z,56.72
2016-10-26T19:34:02.811Z,57.31
2016-10-26T19:35:13.243Z,57.5
2016-10-26T19:36:23.580Z,57.7
2016-10-26T19:37:33.909Z,57.89
2016-10-26T19:38:44.241Z,57.5
2016-10-26T19:39:54.576Z,57.89
2016-10-26T19:41:05.012Z,57.7
2016-10-26T19:42:15.826Z,57.31
2016-10-26T19:43:26.158Z,57.11
2016-10-26T19:44:36.484Z,57.6
2016-10-26T19:45:46.817Z,58.15
2016-10-26T19:46:57.290Z,57.99
2016-10-26T19:48:08.104Z,57.86
2016-10-26T19:49:18.441Z,57.76
2016-10-26T19:50:28.818Z,57.7
2016-10-26T19:51:39.149Z,57.86
2016-10-26T19:52:49.508Z,58.54
2016-10-26T19:53:59.838Z,58.84
2016-10-26T19:55:10.175Z,58.45
2016-10-26T19:56:20.507Z,57.86
2016-10-26T19:57:30.873Z,57.76
2016-10-26T19:58:41.204Z,58.45
2016-10-26T19:59:51.533Z,58.45
2016-10-26T20:01:01.945Z,58.91
2016-10-26T20:02:12.275Z,58.91
2016-10-26T20:03:22.610Z,58.94
2016-10-26T20:04:47.506Z,59
2016-10-26T20:05:57.836Z,58.22
2016-10-26T20:07:08.173Z,58.84
2016-10-26T20:08:18.508Z,58.51
2016-10-26T20:09:28.942Z,58.61
2016-10-26T20:10:39.274Z,63.9
2016-10-26T20:11:49.607Z,66.99
2016-10-26T20:14:24.834Z,69.35
2016-10-26T20:15:35.189Z,69.74
2016-10-26T20:16:45.518Z,70.42
2016-10-26T20:17:55.882Z,70.29
2016-10-26T20:19:06.216Z,70.97
2016-10-26T20:20:17.020Z,71.75
2016-10-26T20:21:27.369Z,72.63
2016-10-26T20:22:37.697Z,73.75
2016-10-26T20:23:48.027Z,74.92
2016-10-26T20:24:58.361Z,75.47
2016-10-26T20:26:08.694Z,76.21
2016-10-26T20:27:19.027Z,76.69
2016-10-26T20:28:29.353Z,77.57
2016-10-26T20:29:39.680Z,77.72
2016-10-26T20:30:50.005Z,77.92
2016-10-26T20:32:00.431Z,78.11
2016-10-26T20:33:10.759Z,78.5
2016-10-26T20:34:21.092Z,79.37
2016-10-26T20:35:31.840Z,80.11
2016-10-26T20:36:42.173Z,80.69
2016-10-26T20:37:52.498Z,81.27
2016-10-26T20:39:02.864Z,80.98
2016-10-26T20:40:13.194Z,80.85
2016-10-26T20:41:23.524Z,81.72
2016-10-26T20:42:33.854Z,82.3
2016-10-26T20:43:44.180Z,81.82
2016-10-26T20:44:54.506Z,82.01
2016-10-26T20:46:04.835Z,83.03
2016-10-26T20:47:15.166Z,82.88
2016-10-26T20:48:25.497Z,82.45
2016-10-26T20:49:35.924Z,83.23
2016-10-26T20:50:46.252Z,83.42
2016-10-26T20:51:56.581Z,83.13
2016-10-26T20:53:06.917Z,84.3
2016-10-26T20:54:31.811Z,84.1
2016-10-26T20:55:42.242Z,84.64
2016-10-26T20:56:53.040Z,84.74
2016-10-26T20:58:03.380Z,84.64
2016-10-26T20:59:13.716Z,85.22
2016-10-26T21:00:24.146Z,85.71
2016-10-26T21:01:34.475Z,85.31
2016-10-26T21:02:44.804Z,85.61
2016-10-26T21:03:55.141Z,85.61
2016-10-26T21:05:05.481Z,85.71
2016-10-26T21:06:15.812Z,85.22
2016-10-26T21:07:26.135Z,85.31
2016-10-26T21:08:36.462Z,85.31
2016-10-26T21:10:01.358Z,85.41
2016-10-26T21:11:11.685Z,85.47
2016-10-26T21:12:36.579Z,86.54
2016-10-26T21:13:46.908Z,86.73
2016-10-26T21:14:57.238Z,87.02
2016-10-26T21:16:07.574Z,87.07
2016-10-26T21:18:43.089Z,87.46
2016-10-26T21:20:07.986Z,87.95
2016-10-26T21:21:18.322Z,87.75
2016-10-26T21:22:28.746Z,87.75
2016-10-26T21:23:39.074Z,87.95
2016-10-26T21:24:49.399Z,89.01
2016-10-26T21:25:59.725Z,89.15
2016-10-26T21:27:10.091Z,89.25
2016-10-26T21:28:20.513Z,89.45
2016-10-26T21:29:30.934Z,89.64
2016-10-26T21:30:41.351Z,90.27
2016-10-26T21:32:06.323Z,90.66
2016-10-26T21:33:17.305Z,90.66
2016-10-26T21:34:27.729Z,91.24
2016-10-26T21:35:38.149Z,91.14
2016-10-26T21:36:48.566Z,91.24
2016-10-26T21:37:58.986Z,90.75
2016-10-26T21:39:09.503Z,91.05
2016-10-26T21:40:19.929Z,91.33
2016-10-26T21:41:59.447Z,91.63
2016-10-26T21:43:09.864Z,91.63
2016-10-26T21:44:20.387Z,91.33
2016-10-26T21:45:30.804Z,91.43
2016-10-26T21:46:41.218Z,91.53
2016-10-26T21:47:51.637Z,91.63
2016-10-26T21:49:16.609Z,91.63
2016-10-26T21:50:27.029Z,92.21
2016-10-26T21:51:51.993Z,92.11
2016-10-26T21:53:02.412Z,92.07
2016-10-26T21:54:12.832Z,92.07
2016-10-26T21:55:23.349Z,92.25
2016-10-26T21:56:33.765Z,92.25
2016-10-26T21:57:44.184Z,91.87
2016-10-26T21:58:54.603Z,92.11
2016-10-26T22:01:30.088Z,91.72
2016-10-26T22:02:40.508Z,91.82
2016-10-26T22:03:50.962Z,91.63
2016-10-26T22:06:40.904Z,90.75
2016-10-26T22:08:05.878Z,90.85
2016-10-26T22:09:16.337Z,90.95
2016-10-26T22:10:41.311Z,90.85
2016-10-26T22:11:51.692Z,90.47
2016-10-26T22:13:02.016Z,90.75
2016-10-26T22:14:26.913Z,90.27
2016-10-26T22:15:37.241Z,90.17
2016-10-26T22:16:47.686Z,90.66
2016-10-26T22:17:58.011Z,90.75
2016-10-26T22:19:22.903Z,90.56
2016-10-26T22:20:33.227Z,90.27
2016-10-26T22:21:43.555Z,91.05
2016-10-26T22:22:53.886Z,90.75
2016-10-26T22:24:04.211Z,90.17
2016-10-26T22:25:14.538Z,90.17
2016-10-26T22:26:24.963Z,90.75
2016-10-26T22:27:35.326Z,90.85
2016-10-26T22:29:00.253Z,90.95
2016-10-26T22:30:10.583Z,91.33
2016-10-26T22:31:20.923Z,91.24
2016-10-26T22:32:31.352Z,90.95
2016-10-26T22:33:41.676Z,91.63
2016-10-26T22:34:52.003Z,92.3
2016-10-26T22:36:02.335Z,92.16
2016-10-26T22:37:12.771Z,92.35
2016-10-26T22:38:23.097Z,92.25
2016-10-26T22:39:33.433Z,92.07
2016-10-26T22:40:58.327Z,92.25
2016-10-26T22:42:08.661Z,91.97
2016-10-26T22:43:19.087Z,92.25
2016-10-26T22:44:29.415Z,91.67
2016-10-26T22:45:39.742Z,91.33
2016-10-26T22:46:50.099Z,91.05
2016-10-26T22:48:00.524Z,90.95
2016-10-26T22:49:10.852Z,90.95
2016-10-26T22:50:21.183Z,91.14
2016-10-26T22:51:31.513Z,90.85
2016-10-26T22:52:41.837Z,91.33
2016-10-26T22:55:17.056Z,91.14
2016-10-26T22:56:27.378Z,91.82
2016-10-26T22:57:37.703Z,91.24
2016-10-26T22:58:48.027Z,91.14
2016-10-26T22:59:58.354Z,91.33
2016-10-26T23:01:08.681Z,91.43
2016-10-26T23:02:19.037Z,91.05
2016-10-26T23:03:29.363Z,90.95
2016-10-26T23:04:39.685Z,90.85
2016-10-26T23:05:50.010Z,91.24
2016-10-26T23:08:25.230Z,91.24
2016-10-26T23:09:50.128Z,91.29
2016-10-26T23:11:00.458Z,91.29
2016-10-26T23:12:10.794Z,91.24
2016-10-26T23:13:21.123Z,91.05
2016-10-26T23:14:31.446Z,91.05
2016-10-26T23:15:42.350Z,91.14
2016-10-26T23:16:52.673Z,90.75
2016-10-26T23:18:03.001Z,89.98
2016-10-26T23:19:13.336Z,90.56
2016-10-26T23:20:23.663Z,90.08
2016-10-26T23:21:34.092Z,90.37
2016-10-26T23:22:44.421Z,90.37
2016-10-26T23:23:54.758Z,90.08
2016-10-26T23:25:05.085Z,90.27
2016-10-26T23:26:15.415Z,89.4
2016-10-26T23:27:25.777Z,90.17
2016-10-26T23:28:36.101Z,90.27
2016-10-26T23:29:46.428Z,90.37
2016-10-26T23:30:56.790Z,90.47
2016-10-26T23:32:07.131Z,90.17
2016-10-26T23:33:32.037Z,90.66
2016-10-26T23:34:42.360Z,90.08
2016-10-26T23:35:52.683Z,90.66
2016-10-26T23:37:03.049Z,90.56
2016-10-26T23:38:13.376Z,90.85
2016-10-26T23:39:23.803Z,90.27
2016-10-26T23:40:34.133Z,90.17
2016-10-26T23:41:44.457Z,90.66
2016-10-26T23:42:54.820Z,90.37
2016-10-26T23:44:05.243Z,89.89
2016-10-26T23:45:15.572Z,90.37
2016-10-26T23:46:25.897Z,90.75
2016-10-26T23:47:36.236Z,88.53
2016-10-26T23:48:46.559Z,89.11
2016-10-26T23:49:56.890Z,89.45
2016-10-26T23:51:07.220Z,91.92
2016-10-26T23:52:32.116Z,92.65
2016-10-26T23:53:57.007Z,93.9
2016-10-26T23:55:07.467Z,94.58
2016-10-26T23:56:17.915Z,95.88
2016-10-26T23:57:28.366Z,95.4
2016-10-26T23:58:38.810Z,96.32
2016-10-26T23:59:49.254Z,94.68
